sensor_id;sensor_type;location;lat;lon;timestamp;P1;durP1;ratioP1;P2;durP2;ratioP2
11222;SDS011;5668;52.012;8.724;2022-08-06T00:02:21;2.15;;;1.27;;
11222;SDS011;5668;52.012;8.724;2022-08-06T00:04:50;2.63;;;1.02;;
11222;SDS011;5668;52.012;8.724;2022-08-06T00:07:18;1.52;;;1.13;;
11222;SDS011;5668;52.012;8.724;2022-08-06T00:09:45;2.20;;;1.50;;
11222;SDS011;5668;52.012;8.724;2022-08-06T00:12:12;2.88;;;1.70;;
11222;SDS011;5668;52.012;8.724;2022-08-06T00:14:40;4.35;;;1.50;;
11222;SDS011;5668;52.012;8.724;2022-08-06T00:17:07;2.85;;;1.30;;
11222;SDS011;5668;52.012;8.724;2022-08-06T00:19:36;1.65;;;1.17;;
11222;SDS011;5668;52.012;8.724;2022-08-06T00:22:03;1.27;;;1.10;;
11222;SDS011;5668;52.012;8.724;2022-08-06T00:24:30;3.35;;;1.35;;
11222;SDS011;5668;52.012;8.724;2022-08-06T00:26:58;2.97;;;1.20;;
11222;SDS011;5668;52.012;8.724;2022-08-06T00:29:25;3.88;;;1.40;;
11222;SDS011;5668;52.012;8.724;2022-08-06T00:31:52;1.10;;;0.98;;
11222;SDS011;5668;52.012;8.724;2022-08-06T00:34:19;2.88;;;1.00;;
11222;SDS011;5668;52.012;8.724;2022-08-06T00:36:48;1.35;;;0.93;;
11222;SDS011;5668;52.012;8.724;2022-08-06T00:39:15;3.60;;;1.10;;
11222;SDS011;5668;52.012;8.724;2022-08-06T00:41:42;3.47;;;1.23;;
11222;SDS011;5668;52.012;8.724;2022-08-06T00:44:10;2.53;;;1.17;;
11222;SDS011;5668;52.012;8.724;2022-08-06T00:46:38;1.70;;;1.27;;
11222;SDS011;5668;52.012;8.724;2022-08-06T00:49:05;1.20;;;1.10;;
11222;SDS011;5668;52.012;8.724;2022-08-06T00:51:33;2.30;;;0.98;;
11222;SDS011;5668;52.012;8.724;2022-08-06T00:54:02;1.77;;;1.20;;
11222;SDS011;5668;52.012;8.724;2022-08-06T00:56:29;1.88;;;1.20;;
11222;SDS011;5668;52.012;8.724;2022-08-06T00:58:56;1.60;;;1.13;;
11222;SDS011;5668;52.012;8.724;2022-08-06T01:01:24;2.10;;;1.30;;
11222;SDS011;5668;52.012;8.724;2022-08-06T01:03:51;3.17;;;1.30;;
11222;SDS011;5668;52.012;8.724;2022-08-06T01:06:18;1.58;;;1.05;;
11222;SDS011;5668;52.012;8.724;2022-08-06T01:08:46;1.75;;;1.20;;
11222;SDS011;5668;52.012;8.724;2022-08-06T01:11:15;1.73;;;1.30;;
11222;SDS011;5668;52.012;8.724;2022-08-06T01:13:42;3.08;;;1.50;;
11222;SDS011;5668;52.012;8.724;2022-08-06T01:16:11;3.45;;;1.38;;
11222;SDS011;5668;52.012;8.724;2022-08-06T01:18:45;3.28;;;1.30;;
11222;SDS011;5668;52.012;8.724;2022-08-06T01:21:23;2.50;;;1.33;;
11222;SDS011;5668;52.012;8.724;2022-08-06T01:24:12;2.03;;;1.30;;
11222;SDS011;5668;52.012;8.724;2022-08-06T01:27:03;3.55;;;1.50;;
11222;SDS011;5668;52.012;8.724;2022-08-06T01:29:52;1.52;;;1.13;;
11222;SDS011;5668;52.012;8.724;2022-08-06T01:32:27;2.50;;;1.23;;
11222;SDS011;5668;52.012;8.724;2022-08-06T01:34:58;2.55;;;1.30;;
11222;SDS011;5668;52.012;8.724;2022-08-06T01:37:32;2.90;;;1.13;;
11222;SDS011;5668;52.012;8.724;2022-08-06T01:40:06;2.20;;;1.08;;
11222;SDS011;5668;52.012;8.724;2022-08-06T01:42:40;1.70;;;1.20;;
11222;SDS011;5668;52.012;8.724;2022-08-06T01:45:11;1.83;;;1.27;;
11222;SDS011;5668;52.012;8.724;2022-08-06T01:47:41;2.80;;;1.20;;
11222;SDS011;5668;52.012;8.724;2022-08-06T01:50:13;2.67;;;1.20;;
11222;SDS011;5668;52.012;8.724;2022-08-06T01:52:44;1.95;;;1.10;;
11222;SDS011;5668;52.012;8.724;2022-08-06T01:55:13;2.28;;;1.10;;
11222;SDS011;5668;52.012;8.724;2022-08-06T01:57:46;1.92;;;1.20;;
11222;SDS011;5668;52.012;8.724;2022-08-06T02:00:17;1.08;;;0.90;;
11222;SDS011;5668;52.012;8.724;2022-08-06T02:02:45;1.52;;;1.23;;
11222;SDS011;5668;52.012;8.724;2022-08-06T02:05:15;1.30;;;1.20;;
11222;SDS011;5668;52.012;8.724;2022-08-06T02:07:46;1.98;;;1.20;;
11222;SDS011;5668;52.012;8.724;2022-08-06T02:10:16;2.05;;;1.20;;
11222;SDS011;5668;52.012;8.724;2022-08-06T02:12:50;1.23;;;1.10;;
11222;SDS011;5668;52.012;8.724;2022-08-06T02:15:19;2.35;;;1.30;;
11222;SDS011;5668;52.012;8.724;2022-08-06T02:17:51;1.75;;;1.00;;
11222;SDS011;5668;52.012;8.724;2022-08-06T02:20:23;1.75;;;1.10;;
11222;SDS011;5668;52.012;8.724;2022-08-06T02:22:52;3.45;;;1.25;;
11222;SDS011;5668;52.012;8.724;2022-08-06T02:25:21;1.77;;;1.13;;
11222;SDS011;5668;52.012;8.724;2022-08-06T02:27:52;1.92;;;1.20;;
11222;SDS011;5668;52.012;8.724;2022-08-06T02:30:22;1.80;;;1.30;;
11222;SDS011;5668;52.012;8.724;2022-08-06T02:32:51;1.63;;;1.23;;
11222;SDS011;5668;52.012;8.724;2022-08-06T02:35:19;1.17;;;1.00;;
11222;SDS011;5668;52.012;8.724;2022-08-06T02:37:48;1.87;;;1.10;;
11222;SDS011;5668;52.012;8.724;2022-08-06T02:40:21;3.47;;;1.10;;
11222;SDS011;5668;52.012;8.724;2022-08-06T02:42:54;1.37;;;1.00;;
11222;SDS011;5668;52.012;8.724;2022-08-06T02:45:27;2.45;;;1.20;;
11222;SDS011;5668;52.012;8.724;2022-08-06T02:48:03;2.40;;;1.20;;
11222;SDS011;5668;52.012;8.724;2022-08-06T02:50:37;1.52;;;1.00;;
11222;SDS011;5668;52.012;8.724;2022-08-06T02:53:08;1.40;;;1.00;;
11222;SDS011;5668;52.012;8.724;2022-08-06T02:55:39;1.25;;;1.00;;
11222;SDS011;5668;52.012;8.724;2022-08-06T02:58:15;1.40;;;1.10;;
11222;SDS011;5668;52.012;8.724;2022-08-06T03:00:48;1.15;;;1.02;;
11222;SDS011;5668;52.012;8.724;2022-08-06T03:03:22;1.50;;;1.40;;
11222;SDS011;5668;52.012;8.724;2022-08-06T03:05:51;1.70;;;1.40;;
11222;SDS011;5668;52.012;8.724;2022-08-06T03:08:23;1.85;;;1.20;;
11222;SDS011;5668;52.012;8.724;2022-08-06T03:10:53;2.20;;;1.40;;
11222;SDS011;5668;52.012;8.724;2022-08-06T03:13:22;5.53;;;1.80;;
11222;SDS011;5668;52.012;8.724;2022-08-06T03:15:50;1.30;;;1.20;;
11222;SDS011;5668;52.012;8.724;2022-08-06T03:18:19;1.57;;;1.30;;
11222;SDS011;5668;52.012;8.724;2022-08-06T03:20:48;1.63;;;1.30;;
11222;SDS011;5668;52.012;8.724;2022-08-06T03:23:18;3.33;;;1.50;;
11222;SDS011;5668;52.012;8.724;2022-08-06T03:25:47;2.40;;;1.30;;
11222;SDS011;5668;52.012;8.724;2022-08-06T03:28:16;2.13;;;1.40;;
11222;SDS011;5668;52.012;8.724;2022-08-06T03:30:47;2.13;;;1.30;;
11222;SDS011;5668;52.012;8.724;2022-08-06T03:33:15;1.40;;;1.30;;
11222;SDS011;5668;52.012;8.724;2022-08-06T03:35:44;1.30;;;1.20;;
11222;SDS011;5668;52.012;8.724;2022-08-06T03:38:12;2.10;;;1.20;;
11222;SDS011;5668;52.012;8.724;2022-08-06T03:40:42;1.77;;;1.00;;
11222;SDS011;5668;52.012;8.724;2022-08-06T03:43:10;3.17;;;1.03;;
11222;SDS011;5668;52.012;8.724;2022-08-06T03:45:38;1.80;;;1.20;;
11222;SDS011;5668;52.012;8.724;2022-08-06T03:48:12;1.50;;;1.40;;
11222;SDS011;5668;52.012;8.724;2022-08-06T03:50:43;2.90;;;1.20;;
11222;SDS011;5668;52.012;8.724;2022-08-06T03:53:16;2.93;;;1.00;;
11222;SDS011;5668;52.012;8.724;2022-08-06T03:55:46;1.27;;;1.10;;
11222;SDS011;5668;52.012;8.724;2022-08-06T03:58:15;1.80;;;1.00;;
11222;SDS011;5668;52.012;8.724;2022-08-06T04:00:46;2.13;;;1.10;;
11222;SDS011;5668;52.012;8.724;2022-08-06T04:03:18;1.63;;;1.00;;
11222;SDS011;5668;52.012;8.724;2022-08-06T04:05:46;2.97;;;1.20;;
11222;SDS011;5668;52.012;8.724;2022-08-06T04:08:14;1.97;;;1.23;;
11222;SDS011;5668;52.012;8.724;2022-08-06T04:10:43;1.33;;;0.93;;
11222;SDS011;5668;52.012;8.724;2022-08-06T04:13:13;1.67;;;1.00;;
11222;SDS011;5668;52.012;8.724;2022-08-06T04:15:42;1.50;;;1.10;;
11222;SDS011;5668;52.012;8.724;2022-08-06T04:18:11;1.57;;;0.93;;
11222;SDS011;5668;52.012;8.724;2022-08-06T04:20:43;1.47;;;1.10;;
11222;SDS011;5668;52.012;8.724;2022-08-06T04:23:12;2.07;;;1.10;;
11222;SDS011;5668;52.012;8.724;2022-08-06T04:25:41;1.67;;;1.10;;
11222;SDS011;5668;52.012;8.724;2022-08-06T04:28:11;3.80;;;1.30;;
11222;SDS011;5668;52.012;8.724;2022-08-06T04:30:40;2.33;;;1.20;;
11222;SDS011;5668;52.012;8.724;2022-08-06T04:33:09;1.48;;;1.15;;
11222;SDS011;5668;52.012;8.724;2022-08-06T04:35:39;1.90;;;1.10;;
11222;SDS011;5668;52.012;8.724;2022-08-06T04:38:09;2.25;;;1.30;;
11222;SDS011;5668;52.012;8.724;2022-08-06T04:40:37;2.93;;;1.50;;
11222;SDS011;5668;52.012;8.724;2022-08-06T04:43:06;2.30;;;1.47;;
11222;SDS011;5668;52.012;8.724;2022-08-06T04:45:36;2.03;;;1.23;;
11222;SDS011;5668;52.012;8.724;2022-08-06T04:48:05;2.47;;;1.33;;
11222;SDS011;5668;52.012;8.724;2022-08-06T04:50:35;1.52;;;1.30;;
11222;SDS011;5668;52.012;8.724;2022-08-06T04:53:08;2.40;;;1.57;;
11222;SDS011;5668;52.012;8.724;2022-08-06T04:55:37;2.50;;;1.30;;
11222;SDS011;5668;52.012;8.724;2022-08-06T04:58:05;2.63;;;1.20;;
11222;SDS011;5668;52.012;8.724;2022-08-06T05:00:33;1.30;;;1.20;;
11222;SDS011;5668;52.012;8.724;2022-08-06T05:03:03;2.03;;;1.20;;
11222;SDS011;5668;52.012;8.724;2022-08-06T05:05:33;2.17;;;1.20;;
11222;SDS011;5668;52.012;8.724;2022-08-06T05:08:03;1.87;;;1.30;;
11222;SDS011;5668;52.012;8.724;2022-08-06T05:10:35;1.87;;;1.20;;
11222;SDS011;5668;52.012;8.724;2022-08-06T05:13:07;1.50;;;1.23;;
11222;SDS011;5668;52.012;8.724;2022-08-06T05:15:38;3.23;;;1.37;;
11222;SDS011;5668;52.012;8.724;2022-08-06T05:18:09;3.77;;;1.23;;
11222;SDS011;5668;52.012;8.724;2022-08-06T05:20:40;2.95;;;1.50;;
11222;SDS011;5668;52.012;8.724;2022-08-06T05:23:15;1.83;;;1.20;;
11222;SDS011;5668;52.012;8.724;2022-08-06T05:25:47;2.60;;;1.33;;
11222;SDS011;5668;52.012;8.724;2022-08-06T05:28:15;1.20;;;1.10;;
11222;SDS011;5668;52.012;8.724;2022-08-06T05:30:43;1.80;;;1.30;;
11222;SDS011;5668;52.012;8.724;2022-08-06T05:33:11;2.90;;;1.30;;
11222;SDS011;5668;52.012;8.724;2022-08-06T05:35:47;1.60;;;1.20;;
11222;SDS011;5668;52.012;8.724;2022-08-06T05:38:15;3.50;;;1.40;;
11222;SDS011;5668;52.012;8.724;2022-08-06T05:40:42;2.00;;;1.37;;
11222;SDS011;5668;52.012;8.724;2022-08-06T05:43:10;1.90;;;1.43;;
11222;SDS011;5668;52.012;8.724;2022-08-06T05:45:38;2.40;;;1.50;;
11222;SDS011;5668;52.012;8.724;2022-08-06T05:48:09;2.20;;;1.50;;
11222;SDS011;5668;52.012;8.724;2022-08-06T05:50:41;1.90;;;1.20;;
11222;SDS011;5668;52.012;8.724;2022-08-06T05:53:14;4.70;;;1.50;;
11222;SDS011;5668;52.012;8.724;2022-08-06T05:55:48;1.50;;;1.38;;
11222;SDS011;5668;52.012;8.724;2022-08-06T05:58:23;1.95;;;1.38;;
11222;SDS011;5668;52.012;8.724;2022-08-06T06:00:58;3.17;;;1.57;;
11222;SDS011;5668;52.012;8.724;2022-08-06T06:03:27;2.28;;;1.30;;
11222;SDS011;5668;52.012;8.724;2022-08-06T06:05:56;3.23;;;1.40;;
11222;SDS011;5668;52.012;8.724;2022-08-06T06:08:26;2.35;;;1.40;;
11222;SDS011;5668;52.012;8.724;2022-08-06T06:10:54;2.45;;;1.17;;
11222;SDS011;5668;52.012;8.724;2022-08-06T06:13:24;3.20;;;1.70;;
11222;SDS011;5668;52.012;8.724;2022-08-06T06:15:53;1.98;;;1.50;;
11222;SDS011;5668;52.012;8.724;2022-08-06T06:18:28;3.15;;;1.27;;
11222;SDS011;5668;52.012;8.724;2022-08-06T06:21:09;3.95;;;1.65;;
11222;SDS011;5668;52.012;8.724;2022-08-06T06:23:42;3.55;;;1.50;;
11222;SDS011;5668;52.012;8.724;2022-08-06T06:26:17;1.92;;;1.40;;
11222;SDS011;5668;52.012;8.724;2022-08-06T06:28:51;2.38;;;1.52;;
11222;SDS011;5668;52.012;8.724;2022-08-06T06:31:25;3.08;;;1.25;;
11222;SDS011;5668;52.012;8.724;2022-08-06T06:34:00;1.48;;;1.33;;
11222;SDS011;5668;52.012;8.724;2022-08-06T06:36:36;2.88;;;1.40;;
11222;SDS011;5668;52.012;8.724;2022-08-06T06:39:14;2.88;;;1.50;;
11222;SDS011;5668;52.012;8.724;2022-08-06T06:41:51;1.40;;;1.30;;
11222;SDS011;5668;52.012;8.724;2022-08-06T06:44:24;3.45;;;1.33;;
11222;SDS011;5668;52.012;8.724;2022-08-06T06:47:03;2.72;;;1.42;;
11222;SDS011;5668;52.012;8.724;2022-08-06T06:49:37;2.30;;;1.45;;
11222;SDS011;5668;52.012;8.724;2022-08-06T06:52:11;1.90;;;1.20;;
11222;SDS011;5668;52.012;8.724;2022-08-06T06:54:43;2.95;;;1.20;;
11222;SDS011;5668;52.012;8.724;2022-08-06T06:57:14;2.97;;;1.38;;
11222;SDS011;5668;52.012;8.724;2022-08-06T06:59:48;1.38;;;1.10;;
11222;SDS011;5668;52.012;8.724;2022-08-06T07:02:19;4.40;;;1.45;;
11222;SDS011;5668;52.012;8.724;2022-08-06T07:04:49;3.45;;;1.20;;
11222;SDS011;5668;52.012;8.724;2022-08-06T07:07:19;2.28;;;1.15;;
11222;SDS011;5668;52.012;8.724;2022-08-06T07:09:48;2.58;;;1.10;;
11222;SDS011;5668;52.012;8.724;2022-08-06T07:12:18;2.80;;;1.13;;
11222;SDS011;5668;52.012;8.724;2022-08-06T07:14:49;2.17;;;0.90;;
11222;SDS011;5668;52.012;8.724;2022-08-06T07:17:19;2.80;;;1.02;;
11222;SDS011;5668;52.012;8.724;2022-08-06T07:19:48;1.70;;;0.80;;
11222;SDS011;5668;52.012;8.724;2022-08-06T07:22:17;2.65;;;0.80;;
11222;SDS011;5668;52.012;8.724;2022-08-06T07:24:46;3.40;;;1.15;;
11222;SDS011;5668;52.012;8.724;2022-08-06T07:27:17;2.38;;;0.90;;
11222;SDS011;5668;52.012;8.724;2022-08-06T07:29:45;1.92;;;0.95;;
11222;SDS011;5668;52.012;8.724;2022-08-06T07:32:14;0.85;;;0.70;;
11222;SDS011;5668;52.012;8.724;2022-08-06T07:34:42;1.60;;;0.90;;
11222;SDS011;5668;52.012;8.724;2022-08-06T07:37:10;1.95;;;0.80;;
11222;SDS011;5668;52.012;8.724;2022-08-06T07:39:38;2.53;;;0.80;;
11222;SDS011;5668;52.012;8.724;2022-08-06T07:42:07;1.48;;;0.85;;
11222;SDS011;5668;52.012;8.724;2022-08-06T07:44:39;2.58;;;0.75;;
11222;SDS011;5668;52.012;8.724;2022-08-06T07:47:09;1.55;;;0.60;;
11222;SDS011;5668;52.012;8.724;2022-08-06T07:49:45;1.48;;;0.65;;
11222;SDS011;5668;52.012;8.724;2022-08-06T07:52:21;0.85;;;0.60;;
11222;SDS011;5668;52.012;8.724;2022-08-06T07:54:48;2.60;;;0.60;;
11222;SDS011;5668;52.012;8.724;2022-08-06T07:57:16;2.70;;;0.70;;
11222;SDS011;5668;52.012;8.724;2022-08-06T07:59:43;2.97;;;0.73;;
11222;SDS011;5668;52.012;8.724;2022-08-06T08:02:12;3.05;;;0.70;;
11222;SDS011;5668;52.012;8.724;2022-08-06T08:04:41;2.25;;;0.65;;
11222;SDS011;5668;52.012;8.724;2022-08-06T08:07:27;1.75;;;0.90;;
11222;SDS011;5668;52.012;8.724;2022-08-06T08:09:56;2.40;;;0.60;;
11222;SDS011;5668;52.012;8.724;2022-08-06T08:12:25;2.72;;;0.73;;
11222;SDS011;5668;52.012;8.724;2022-08-06T08:14:53;1.27;;;0.60;;
11222;SDS011;5668;52.012;8.724;2022-08-06T08:17:23;0.93;;;0.57;;
11222;SDS011;5668;52.012;8.724;2022-08-06T08:19:51;0.68;;;0.50;;
11222;SDS011;5668;52.012;8.724;2022-08-06T08:22:18;1.50;;;0.45;;
11222;SDS011;5668;52.012;8.724;2022-08-06T08:24:47;1.73;;;0.55;;
11222;SDS011;5668;52.012;8.724;2022-08-06T08:27:14;1.00;;;0.50;;
11222;SDS011;5668;52.012;8.724;2022-08-06T08:29:41;1.33;;;0.40;;
11222;SDS011;5668;52.012;8.724;2022-08-06T08:32:09;0.95;;;0.50;;
11222;SDS011;5668;52.012;8.724;2022-08-06T08:34:37;1.13;;;0.50;;
11222;SDS011;5668;52.012;8.724;2022-08-06T08:37:05;1.92;;;0.50;;
11222;SDS011;5668;52.012;8.724;2022-08-06T08:39:32;0.95;;;0.43;;
11222;SDS011;5668;52.012;8.724;2022-08-06T08:42:02;0.93;;;0.40;;
11222;SDS011;5668;52.012;8.724;2022-08-06T08:44:32;1.48;;;0.47;;
11222;SDS011;5668;52.012;8.724;2022-08-06T08:47:00;0.40;;;0.32;;
11222;SDS011;5668;52.012;8.724;2022-08-06T08:49:32;0.82;;;0.38;;
11222;SDS011;5668;52.012;8.724;2022-08-06T08:52:06;2.00;;;0.55;;
11222;SDS011;5668;52.012;8.724;2022-08-06T08:54:35;0.38;;;0.32;;
11222;SDS011;5668;52.012;8.724;2022-08-06T08:57:05;1.05;;;0.50;;
11222;SDS011;5668;52.012;8.724;2022-08-06T08:59:34;0.50;;;0.40;;
11222;SDS011;5668;52.012;8.724;2022-08-06T09:02:03;0.50;;;0.30;;
11222;SDS011;5668;52.012;8.724;2022-08-06T09:04:31;1.63;;;0.50;;
11222;SDS011;5668;52.012;8.724;2022-08-06T09:06:59;0.73;;;0.40;;
11222;SDS011;5668;52.012;8.724;2022-08-06T09:09:28;1.02;;;0.50;;
11222;SDS011;5668;52.012;8.724;2022-08-06T09:12:00;0.80;;;0.50;;
11222;SDS011;5668;52.012;8.724;2022-08-06T09:14:27;1.48;;;0.50;;
11222;SDS011;5668;52.012;8.724;2022-08-06T09:16:54;0.77;;;0.30;;
11222;SDS011;5668;52.012;8.724;2022-08-06T09:19:24;1.52;;;0.40;;
11222;SDS011;5668;52.012;8.724;2022-08-06T09:21:54;0.60;;;0.30;;
11222;SDS011;5668;52.012;8.724;2022-08-06T09:24:22;1.52;;;0.30;;
11222;SDS011;5668;52.012;8.724;2022-08-06T09:27:04;0.95;;;0.60;;
11222;SDS011;5668;52.012;8.724;2022-08-06T09:29:33;0.90;;;0.40;;
11222;SDS011;5668;52.012;8.724;2022-08-06T09:32:01;0.93;;;0.50;;
11222;SDS011;5668;52.012;8.724;2022-08-06T09:34:32;2.50;;;0.40;;
11222;SDS011;5668;52.012;8.724;2022-08-06T09:37:01;1.48;;;0.40;;
11222;SDS011;5668;52.012;8.724;2022-08-06T09:39:29;0.90;;;0.43;;
11222;SDS011;5668;52.012;8.724;2022-08-06T09:42:00;1.33;;;0.45;;
11222;SDS011;5668;52.012;8.724;2022-08-06T09:44:30;1.33;;;0.30;;
11222;SDS011;5668;52.012;8.724;2022-08-06T09:46:57;1.65;;;0.50;;
11222;SDS011;5668;52.012;8.724;2022-08-06T09:49:26;1.23;;;0.50;;
11222;SDS011;5668;52.012;8.724;2022-08-06T09:52:12;1.50;;;0.43;;
11222;SDS011;5668;52.012;8.724;2022-08-06T09:54:41;1.15;;;0.30;;
11222;SDS011;5668;52.012;8.724;2022-08-06T09:57:08;0.30;;;0.30;;
11222;SDS011;5668;52.012;8.724;2022-08-06T09:59:43;0.28;;;0.28;;
11222;SDS011;5668;52.012;8.724;2022-08-06T10:02:12;0.50;;;0.30;;
11222;SDS011;5668;52.012;8.724;2022-08-06T10:04:40;0.50;;;0.30;;
11222;SDS011;5668;52.012;8.724;2022-08-06T10:07:07;1.67;;;0.30;;
11222;SDS011;5668;52.012;8.724;2022-08-06T10:09:35;1.33;;;0.40;;
11222;SDS011;5668;52.012;8.724;2022-08-06T10:12:08;0.88;;;0.40;;
11222;SDS011;5668;52.012;8.724;2022-08-06T10:14:45;1.00;;;0.35;;
11222;SDS011;5668;52.012;8.724;2022-08-06T10:17:13;0.25;;;0.20;;
11222;SDS011;5668;52.012;8.724;2022-08-06T10:19:42;1.70;;;0.20;;
11222;SDS011;5668;52.012;8.724;2022-08-06T10:22:12;0.90;;;0.30;;
11222;SDS011;5668;52.012;8.724;2022-08-06T10:24:41;1.00;;;0.22;;
11222;SDS011;5668;52.012;8.724;2022-08-06T10:27:10;0.32;;;0.30;;
11222;SDS011;5668;52.012;8.724;2022-08-06T10:29:40;1.48;;;0.32;;
11222;SDS011;5668;52.012;8.724;2022-08-06T10:32:13;0.50;;;0.28;;
11222;SDS011;5668;52.012;8.724;2022-08-06T10:34:43;0.43;;;0.20;;
11222;SDS011;5668;52.012;8.724;2022-08-06T10:37:14;0.20;;;0.20;;
11222;SDS011;5668;52.012;8.724;2022-08-06T10:39:46;0.40;;;0.30;;
11222;SDS011;5668;52.012;8.724;2022-08-06T10:42:17;0.75;;;0.20;;
11222;SDS011;5668;52.012;8.724;2022-08-06T10:44:45;1.00;;;0.38;;
11222;SDS011;5668;52.012;8.724;2022-08-06T10:47:15;0.93;;;0.38;;
11222;SDS011;5668;52.012;8.724;2022-08-06T10:49:43;0.55;;;0.38;;
11222;SDS011;5668;52.012;8.724;2022-08-06T10:52:11;0.50;;;0.40;;
11222;SDS011;5668;52.012;8.724;2022-08-06T10:54:40;3.00;;;0.30;;
11222;SDS011;5668;52.012;8.724;2022-08-06T10:57:07;0.60;;;0.30;;
11222;SDS011;5668;52.012;8.724;2022-08-06T10:59:37;0.40;;;0.28;;
11222;SDS011;5668;52.012;8.724;2022-08-06T11:02:06;1.23;;;0.40;;
11222;SDS011;5668;52.012;8.724;2022-08-06T11:04:45;0.85;;;0.43;;
11222;SDS011;5668;52.012;8.724;2022-08-06T11:10:20;1.13;;;0.40;;
11222;SDS011;5668;52.012;8.724;2022-08-06T11:13:02;0.50;;;0.30;;
11222;SDS011;5668;52.012;8.724;2022-08-06T11:15:39;0.40;;;0.30;;
11222;SDS011;5668;52.012;8.724;2022-08-06T11:18:10;0.50;;;0.30;;
11222;SDS011;5668;52.012;8.724;2022-08-06T11:20:41;0.47;;;0.30;;
11222;SDS011;5668;52.012;8.724;2022-08-06T11:23:23;0.90;;;0.30;;
11222;SDS011;5668;52.012;8.724;2022-08-06T11:25:53;0.30;;;0.20;;
11222;SDS011;5668;52.012;8.724;2022-08-06T11:31:31;0.43;;;0.32;;
11222;SDS011;5668;52.012;8.724;2022-08-06T11:34:01;0.65;;;0.30;;
11222;SDS011;5668;52.012;8.724;2022-08-06T11:36:43;0.60;;;0.60;;
11222;SDS011;5668;52.012;8.724;2022-08-06T11:39:18;0.35;;;0.30;;
11222;SDS011;5668;52.012;8.724;2022-08-06T11:41:48;1.27;;;0.22;;
11222;SDS011;5668;52.012;8.724;2022-08-06T11:44:18;0.77;;;0.30;;
11222;SDS011;5668;52.012;8.724;2022-08-06T11:46:47;0.88;;;0.22;;
11222;SDS011;5668;52.012;8.724;2022-08-06T11:49:16;0.55;;;0.30;;
11222;SDS011;5668;52.012;8.724;2022-08-06T11:51:53;0.95;;;0.30;;
11222;SDS011;5668;52.012;8.724;2022-08-06T11:54:22;0.65;;;0.45;;
11222;SDS011;5668;52.012;8.724;2022-08-06T11:59:45;1.13;;;0.40;;
11222;SDS011;5668;52.012;8.724;2022-08-06T12:02:44;0.68;;;0.40;;
11222;SDS011;5668;52.012;8.724;2022-08-06T12:05:38;0.30;;;0.30;;
11222;SDS011;5668;52.012;8.724;2022-08-06T12:14:03;1.30;;;0.30;;
11222;SDS011;5668;52.012;8.724;2022-08-06T12:16:32;0.38;;;0.30;;
11222;SDS011;5668;52.012;8.724;2022-08-06T12:19:01;0.45;;;0.20;;
11222;SDS011;5668;52.012;8.724;2022-08-06T12:21:31;0.75;;;0.20;;
11222;SDS011;5668;52.012;8.724;2022-08-06T12:24:00;0.45;;;0.22;;
11222;SDS011;5668;52.012;8.724;2022-08-06T12:26:29;1.85;;;0.30;;
11222;SDS011;5668;52.012;8.724;2022-08-06T12:29:00;0.95;;;0.22;;
11222;SDS011;5668;52.012;8.724;2022-08-06T12:31:30;0.40;;;0.30;;
11222;SDS011;5668;52.012;8.724;2022-08-06T12:34:01;0.77;;;0.30;;
11222;SDS011;5668;52.012;8.724;2022-08-06T12:36:29;1.20;;;0.40;;
11222;SDS011;5668;52.012;8.724;2022-08-06T12:39:00;1.13;;;0.30;;
11222;SDS011;5668;52.012;8.724;2022-08-06T12:41:33;0.40;;;0.20;;
11222;SDS011;5668;52.012;8.724;2022-08-06T12:44:02;1.02;;;0.35;;
11222;SDS011;5668;52.012;8.724;2022-08-06T12:46:29;1.52;;;0.35;;
11222;SDS011;5668;52.012;8.724;2022-08-06T12:48:57;0.47;;;0.10;;
11222;SDS011;5668;52.012;8.724;2022-08-06T12:51:25;0.50;;;0.20;;
11222;SDS011;5668;52.012;8.724;2022-08-06T12:53:54;1.02;;;0.28;;
11222;SDS011;5668;52.012;8.724;2022-08-06T12:56:25;0.60;;;0.32;;
11222;SDS011;5668;52.012;8.724;2022-08-06T12:58:54;0.45;;;0.30;;
11222;SDS011;5668;52.012;8.724;2022-08-06T13:01:23;3.13;;;0.30;;
11222;SDS011;5668;52.012;8.724;2022-08-06T13:03:54;0.80;;;0.28;;
11222;SDS011;5668;52.012;8.724;2022-08-06T13:06:24;2.30;;;0.93;;
11222;SDS011;5668;52.012;8.724;2022-08-06T13:08:54;1.13;;;0.32;;
11222;SDS011;5668;52.012;8.724;2022-08-06T13:11:29;0.68;;;0.20;;
11222;SDS011;5668;52.012;8.724;2022-08-06T13:13:57;0.20;;;0.20;;
11222;SDS011;5668;52.012;8.724;2022-08-06T13:16:37;0.47;;;0.30;;
11222;SDS011;5668;52.012;8.724;2022-08-06T13:19:06;0.40;;;0.20;;
11222;SDS011;5668;52.012;8.724;2022-08-06T13:21:34;0.30;;;0.17;;
11222;SDS011;5668;52.012;8.724;2022-08-06T13:24:03;0.88;;;0.40;;
11222;SDS011;5668;52.012;8.724;2022-08-06T13:26:32;2.58;;;0.40;;
11222;SDS011;5668;52.012;8.724;2022-08-06T13:29:12;1.10;;;0.30;;
11222;SDS011;5668;52.012;8.724;2022-08-06T13:31:41;1.45;;;0.30;;
11222;SDS011;5668;52.012;8.724;2022-08-06T13:34:09;0.30;;;0.20;;
11222;SDS011;5668;52.012;8.724;2022-08-06T13:36:37;1.15;;;0.30;;
11222;SDS011;5668;52.012;8.724;2022-08-06T13:39:19;0.47;;;0.30;;
11222;SDS011;5668;52.012;8.724;2022-08-06T13:42:00;0.35;;;0.30;;
11222;SDS011;5668;52.012;8.724;2022-08-06T13:44:34;0.93;;;0.38;;
11222;SDS011;5668;52.012;8.724;2022-08-06T13:47:03;0.35;;;0.30;;
11222;SDS011;5668;52.012;8.724;2022-08-06T13:49:31;1.02;;;0.30;;
11222;SDS011;5668;52.012;8.724;2022-08-06T13:51:59;0.77;;;0.30;;
11222;SDS011;5668;52.012;8.724;2022-08-06T13:54:26;0.75;;;0.30;;
11222;SDS011;5668;52.012;8.724;2022-08-06T13:56:54;0.20;;;0.20;;
11222;SDS011;5668;52.012;8.724;2022-08-06T13:59:26;0.55;;;0.17;;
11222;SDS011;5668;52.012;8.724;2022-08-06T14:01:56;0.68;;;0.20;;
11222;SDS011;5668;52.012;8.724;2022-08-06T14:04:25;0.47;;;0.30;;
11222;SDS011;5668;52.012;8.724;2022-08-06T14:06:53;0.75;;;0.20;;
11222;SDS011;5668;52.012;8.724;2022-08-06T14:09:22;0.60;;;0.22;;
11222;SDS011;5668;52.012;8.724;2022-08-06T14:11:52;0.65;;;0.17;;
11222;SDS011;5668;52.012;8.724;2022-08-06T14:14:21;1.52;;;0.30;;
11222;SDS011;5668;52.012;8.724;2022-08-06T14:16:51;0.70;;;0.30;;
11222;SDS011;5668;52.012;8.724;2022-08-06T14:19:19;0.77;;;0.30;;
11222;SDS011;5668;52.012;8.724;2022-08-06T14:21:46;0.40;;;0.30;;
11222;SDS011;5668;52.012;8.724;2022-08-06T14:24:13;0.43;;;0.30;;
11222;SDS011;5668;52.012;8.724;2022-08-06T14:26:41;0.40;;;0.10;;
11222;SDS011;5668;52.012;8.724;2022-08-06T14:29:08;0.50;;;0.22;;
11222;SDS011;5668;52.012;8.724;2022-08-06T14:31:36;0.35;;;0.20;;
11222;SDS011;5668;52.012;8.724;2022-08-06T14:34:05;0.50;;;0.28;;
11222;SDS011;5668;52.012;8.724;2022-08-06T14:36:32;0.38;;;0.22;;
11222;SDS011;5668;52.012;8.724;2022-08-06T14:39:00;0.10;;;0.10;;
11222;SDS011;5668;52.012;8.724;2022-08-06T14:41:27;1.08;;;0.45;;
11222;SDS011;5668;52.012;8.724;2022-08-06T14:44:12;0.40;;;0.17;;
11222;SDS011;5668;52.012;8.724;2022-08-06T14:46:57;1.20;;;0.30;;
11222;SDS011;5668;52.012;8.724;2022-08-06T14:49:25;1.80;;;0.30;;
11222;SDS011;5668;52.012;8.724;2022-08-06T14:51:53;0.40;;;0.20;;
11222;SDS011;5668;52.012;8.724;2022-08-06T14:54:20;0.35;;;0.20;;
11222;SDS011;5668;52.012;8.724;2022-08-06T14:56:47;0.47;;;0.30;;
11222;SDS011;5668;52.012;8.724;2022-08-06T14:59:15;1.33;;;0.40;;
11222;SDS011;5668;52.012;8.724;2022-08-06T15:01:42;0.20;;;0.20;;
11222;SDS011;5668;52.012;8.724;2022-08-06T15:04:10;0.65;;;0.20;;
11222;SDS011;5668;52.012;8.724;2022-08-06T15:06:39;0.60;;;0.30;;
11222;SDS011;5668;52.012;8.724;2022-08-06T15:09:06;0.93;;;0.30;;
11222;SDS011;5668;52.012;8.724;2022-08-06T15:11:33;0.28;;;0.20;;
11222;SDS011;5668;52.012;8.724;2022-08-06T15:14:01;1.02;;;0.32;;
11222;SDS011;5668;52.012;8.724;2022-08-06T15:16:28;1.00;;;0.30;;
11222;SDS011;5668;52.012;8.724;2022-08-06T15:18:55;1.10;;;0.40;;
11222;SDS011;5668;52.012;8.724;2022-08-06T15:21:23;0.20;;;0.10;;
11222;SDS011;5668;52.012;8.724;2022-08-06T15:23:53;1.02;;;0.30;;
11222;SDS011;5668;52.012;8.724;2022-08-06T15:26:21;0.95;;;0.52;;
11222;SDS011;5668;52.012;8.724;2022-08-06T15:28:48;0.82;;;0.40;;
11222;SDS011;5668;52.012;8.724;2022-08-06T15:31:15;0.93;;;0.30;;
11222;SDS011;5668;52.012;8.724;2022-08-06T15:33:43;1.00;;;0.30;;
11222;SDS011;5668;52.012;8.724;2022-08-06T15:36:11;0.35;;;0.20;;